Whitecourt, Canada
Current Conditions -  °F | °C
As of 7:00 AM on Monday 20 Oct 2014 (Local Time) from CYZU Reporting Station
Broken Clouds Broken Clouds  
Wind Chill: 37°   Ceiling: 10000
Heat Index: 37°   Visibility: 15mi
Dew Point: 34°   Wind: 2mph
Humidity: 87%   Direction: NA
Pressure: 29.54"   Gusts: NA
Location:  54.13°N, 115.67°W
Report Text: CYZU 201300Z VRB02KT 15SM FEW040 BKN100 03/01 A2954 RMK SC2AC5 SLP024
Loading
Personal Weather Stations






























Interactive Weather Map
Tropical Storm Tracking
New forecast layout! Learn more

10-Day Weather Forecast

Advertisements
Track Severe Weather on mobile